Time;durP1;ratioP1;P1;durP2;ratioP2;P2;SDS_P1;SDS_P2;PMS_P1;PMS_P2;Temp;Humidity;BMP_temperature;BMP_pressure;BME280_temperature;BME280_humidity;BME280_pressure;Samples;Min_cycle;Max_cycle;Signal;HPM_P1;HPM_P2
2022/02/18 00:00:17;;;;;;;0.20;0.20;;;7.50;99.90;;;;;;5026322;28;20217;-84
2022/02/18 00:02:43;;;;;;;2.17;0.87;;;7.60;99.90;;;;;;5023562;28;20223;-85
2022/02/18 00:05:09;;;;;;;0.83;0.63;;;7.60;99.90;;;;;;5023201;28;20641;-85
2022/02/18 00:07:34;;;;;;;0.40;0.20;;;7.60;99.90;;;;;;5019494;28;20202;-84
2022/02/18 00:10:00;;;;;;;1.50;1.17;;;7.70;99.90;;;;;;5021052;28;20199;-84
2022/02/18 00:12:25;;;;;;;1.20;0.87;;;7.70;99.90;;;;;;5025459;28;20536;-85
2022/02/18 00:14:51;;;;;;;0.03;0.03;;;7.80;99.90;;;;;;5024392;28;20285;-84
2022/02/18 00:17:16;;;;;;;0.10;0.10;;;7.80;99.90;;;;;;5023189;28;20215;-84
2022/02/18 00:19:42;;;;;;;0.93;0.43;;;7.80;99.90;;;;;;5026697;28;20285;-84
2022/02/18 00:22:07;;;;;;;0.73;0.60;;;7.80;99.90;;;;;;5022315;28;20196;-85
2022/02/18 00:24:33;;;;;;;0.10;0.10;;;7.80;99.90;;;;;;5023767;28;20179;-85
2022/02/18 00:26:59;;;;;;;0.30;0.20;;;7.70;99.90;;;;;;5022421;28;20205;-84
2022/02/18 00:29:24;;;;;;;0.27;0.27;;;7.80;99.90;;;;;;5024499;28;20658;-84
2022/02/18 00:31:50;;;;;;;0.10;0.10;;;7.80;99.90;;;;;;5018993;28;20305;-85
2022/02/18 00:34:16;;;;;;;0.10;0.10;;;7.80;99.90;;;;;;5024445;28;20320;-85
2022/02/18 00:36:42;;;;;;;0.87;0.87;;;7.70;99.90;;;;;;5040686;28;20216;-85
2022/02/18 00:39:07;;;;;;;0.40;0.40;;;7.70;99.90;;;;;;5021288;28;20198;-85
2022/02/18 00:41:33;;;;;;;2.13;0.50;;;7.70;99.90;;;;;;5025454;28;20436;-84
2022/02/18 00:43:58;;;;;;;0.30;0.20;;;7.70;99.90;;;;;;5021744;28;20215;-84
2022/02/18 00:46:24;;;;;;;0.10;0.10;;;7.80;99.90;;;;;;5025872;28;20237;-85
2022/02/18 00:48:49;;;;;;;0.53;0.37;;;7.80;99.90;;;;;;5026511;28;20182;-85
2022/02/18 00:51:15;;;;;;;0.10;0.10;;;7.80;99.90;;;;;;5024358;28;20179;-84
2022/02/18 00:53:41;;;;;;;0.77;0.40;;;7.80;99.90;;;;;;5022073;28;20192;-85
2022/02/18 00:56:07;;;;;;;0.93;0.77;;;7.80;99.90;;;;;;5019523;28;20608;-84
2022/02/18 00:58:32;;;;;;;3.50;1.47;;;7.90;99.90;;;;;;5025097;28;20240;-84
2022/02/18 01:00:58;;;;;;;0.57;0.57;;;7.90;99.90;;;;;;5021729;28;20222;-85
2022/02/18 01:03:24;;;;;;;0.87;0.70;;;8.00;99.90;;;;;;5023948;28;20266;-84
2022/02/18 01:05:50;;;;;;;0.83;0.83;;;8.00;99.90;;;;;;5023095;28;20689;-84
2022/02/18 01:08:17;;;;;;;6.80;0.40;;;8.10;99.90;;;;;;5024052;28;20207;-85
2022/02/18 01:10:43;;;;;;;0.10;0.10;;;8.20;99.90;;;;;;5022210;28;20171;-85
2022/02/18 01:13:09;;;;;;;0.10;0.10;;;8.20;99.90;;;;;;5025187;28;20722;-85
2022/02/18 01:15:35;;;;;;;5.60;0.83;;;8.30;99.90;;;;;;5023677;28;20191;-85
2022/02/18 01:18:00;;;;;;;0.60;0.60;;;8.40;99.90;;;;;;5025343;28;20240;-84
2022/02/18 01:20:26;;;;;;;0.77;0.47;;;8.40;99.90;;;;;;5023343;28;20268;-84
2022/02/18 01:22:52;;;;;;;0.30;0.30;;;8.40;99.90;;;;;;5019581;28;20386;-84
2022/02/18 01:25:17;;;;;;;0.63;0.63;;;8.40;99.90;;;;;;5022697;28;20644;-83
2022/02/18 01:27:43;;;;;;;1.60;1.27;;;8.50;99.90;;;;;;5023352;28;20212;-84
2022/02/18 01:30:09;;;;;;;0.20;0.13;;;8.50;99.90;;;;;;5022076;28;20189;-84
2022/02/18 01:32:36;;;;;;;0.20;0.20;;;8.50;99.90;;;;;;5023068;28;20235;-86
2022/02/18 01:35:02;;;;;;;1.30;0.63;;;8.50;99.90;;;;;;5024828;28;20179;-84
2022/02/18 01:37:27;;;;;;;0.40;0.30;;;8.50;99.90;;;;;;5022586;28;20209;-85
2022/02/18 01:39:53;;;;;;;0.63;0.53;;;8.50;99.90;;;;;;5025345;28;20253;-83
2022/02/18 01:42:19;;;;;;;0.17;0.17;;;8.50;99.90;;;;;;5023957;28;20185;-85
2022/02/18 01:44:47;;;;;;;0.10;0.10;;;8.60;99.90;;;;;;5019763;28;20184;-86
2022/02/18 01:47:15;;;;;;;0.10;0.10;;;8.60;99.90;;;;;;5023077;28;20225;-85
2022/02/18 01:49:42;;;;;;;0.77;0.33;;;8.50;99.90;;;;;;5020333;28;20184;-85
2022/02/18 01:52:09;;;;;;;0.10;0.10;;;8.50;99.90;;;;;;5025802;28;20250;-86
2022/02/18 01:54:35;;;;;;;0.00;0.00;;;8.40;99.90;;;;;;5023435;28;20964;-86
2022/02/18 01:57:01;;;;;;;1.80;0.67;;;8.50;99.90;;;;;;5025149;28;20243;-85
2022/02/18 01:59:28;;;;;;;4.07;0.50;;;8.50;99.90;;;;;;5022685;28;20218;-84
2022/02/18 02:01:54;;;;;;;0.43;0.43;;;8.50;99.90;;;;;;5025983;28;20211;-85
2022/02/18 02:04:19;;;;;;;0.40;0.40;;;8.50;99.90;;;;;;5022116;28;20203;-85
2022/02/18 02:06:46;;;;;;;0.00;0.00;;;8.50;99.90;;;;;;5024040;28;20216;-85
2022/02/18 02:09:13;;;;;;;0.10;0.10;;;8.50;99.90;;;;;;5025643;28;20192;-85
2022/02/18 02:11:38;;;;;;;0.33;0.33;;;8.50;99.90;;;;;;5027711;28;20654;-85
2022/02/18 02:14:05;;;;;;;0.20;0.20;;;8.50;99.90;;;;;;5022379;28;20190;-85
2022/02/18 02:16:32;;;;;;;1.80;0.30;;;8.50;99.90;;;;;;5023327;28;20584;-85
2022/02/18 02:18:57;;;;;;;0.10;0.10;;;8.50;99.90;;;;;;5027168;28;20245;-85
2022/02/18 02:21:23;;;;;;;0.67;0.50;;;8.50;99.90;;;;;;5025528;28;20566;-85
2022/02/18 02:23:49;;;;;;;0.10;0.10;;;8.60;99.90;;;;;;5026040;28;20190;-84
2022/02/18 02:26:15;;;;;;;0.10;0.10;;;8.70;99.90;;;;;;5026174;28;20635;-85
2022/02/18 02:28:41;;;;;;;0.30;0.30;;;8.70;99.90;;;;;;5026979;28;20298;-86
2022/02/18 02:31:07;;;;;;;0.10;0.10;;;8.80;99.90;;;;;;5027568;28;20323;-85
2022/02/18 02:33:33;;;;;;;1.60;0.67;;;8.70;99.90;;;;;;5025546;28;20208;-85
2022/02/18 02:35:59;;;;;;;1.53;0.50;;;8.60;99.90;;;;;;5021060;28;20216;-84
2022/02/18 02:38:24;;;;;;;1.23;0.23;;;8.60;99.90;;;;;;5025603;28;20399;-84
2022/02/18 02:40:50;;;;;;;0.10;0.10;;;8.60;99.90;;;;;;5027605;28;20197;-84
2022/02/18 02:43:15;;;;;;;0.43;0.43;;;8.60;99.90;;;;;;5027075;28;20193;-85
2022/02/18 02:45:42;;;;;;;0.10;0.10;;;8.50;99.90;;;;;;5027352;28;20216;-84
2022/02/18 02:48:07;;;;;;;0.57;0.37;;;8.50;99.90;;;;;;5028035;28;20208;-85
2022/02/18 02:50:33;;;;;;;0.77;0.77;;;8.50;99.90;;;;;;5026200;28;20192;-85
2022/02/18 02:52:58;;;;;;;0.30;0.30;;;8.40;99.90;;;;;;5023246;28;20565;-84
2022/02/18 02:55:24;;;;;;;0.20;0.20;;;8.40;99.90;;;;;;5024406;28;20296;-85
2022/02/18 02:57:50;;;;;;;0.10;0.10;;;8.50;99.90;;;;;;5025456;28;20208;-86
2022/02/18 03:00:17;;;;;;;0.10;0.10;;;8.60;99.90;;;;;;5027086;28;20197;-85
2022/02/18 03:02:43;;;;;;;0.30;0.30;;;8.60;99.90;;;;;;5026704;28;20270;-84
2022/02/18 03:05:10;;;;;;;0.10;0.10;;;8.60;99.90;;;;;;5026292;28;20217;-84
2022/02/18 03:07:36;;;;;;;0.10;0.10;;;8.60;99.90;;;;;;5026011;28;20218;-85
2022/02/18 03:10:03;;;;;;;0.20;0.20;;;8.70;99.90;;;;;;5025167;28;20290;-84
2022/02/18 03:12:29;;;;;;;0.63;0.63;;;8.80;99.90;;;;;;5024481;28;20264;-86
2022/02/18 03:14:54;;;;;;;0.10;0.10;;;8.70;99.90;;;;;;5027167;28;20723;-84
2022/02/18 03:17:20;;;;;;;0.20;0.20;;;8.70;99.90;;;;;;5024984;28;20207;-86
2022/02/18 03:19:46;;;;;;;0.10;0.10;;;8.50;99.90;;;;;;5026794;28;20185;-84
2022/02/18 03:22:11;;;;;;;0.77;0.20;;;8.40;99.90;;;;;;5025212;28;20803;-84
2022/02/18 03:24:37;;;;;;;0.30;0.30;;;8.50;99.90;;;;;;5024058;28;20197;-85
2022/02/18 03:27:03;;;;;;;0.10;0.10;;;8.40;99.90;;;;;;5025631;28;20310;-84
2022/02/18 03:29:29;;;;;;;0.47;0.47;;;8.40;99.90;;;;;;5026851;28;20755;-84
2022/02/18 03:31:54;;;;;;;0.10;0.10;;;8.40;99.90;;;;;;5023630;28;20605;-84
2022/02/18 03:34:21;;;;;;;0.23;0.23;;;8.40;99.90;;;;;;5026171;28;20213;-85
2022/02/18 03:36:47;;;;;;;0.00;0.00;;;8.40;99.90;;;;;;5025854;28;20216;-86
2022/02/18 03:39:12;;;;;;;0.10;0.10;;;8.40;99.90;;;;;;5023594;28;20224;-85
2022/02/18 03:41:38;;;;;;;0.50;0.40;;;8.50;99.90;;;;;;5021883;28;20749;-86
2022/02/18 03:44:06;;;;;;;0.10;0.10;;;8.60;99.90;;;;;;5027605;28;20609;-84
2022/02/18 03:46:33;;;;;;;0.30;0.30;;;8.60;99.90;;;;;;5021736;28;20239;-84
2022/02/18 03:48:59;;;;;;;0.10;0.10;;;8.60;99.90;;;;;;5026469;28;20183;-85
2022/02/18 03:51:25;;;;;;;0.13;0.13;;;8.60;99.90;;;;;;5022033;28;20212;-84
2022/02/18 03:53:51;;;;;;;0.27;0.27;;;8.60;99.90;;;;;;5025241;28;20202;-86
2022/02/18 03:56:17;;;;;;;0.10;0.10;;;8.70;99.90;;;;;;5022420;28;20276;-85
2022/02/18 03:58:42;;;;;;;0.10;0.10;;;8.70;99.90;;;;;;5024266;28;20319;-85
2022/02/18 04:01:08;;;;;;;1.70;0.33;;;8.70;99.90;;;;;;5023294;28;20194;-87
2022/02/18 04:03:33;;;;;;;0.10;0.10;;;8.70;99.90;;;;;;5024241;28;20649;-85
2022/02/18 04:05:59;;;;;;;0.10;0.10;;;8.80;99.90;;;;;;5024686;28;20216;-85
2022/02/18 04:08:25;;;;;;;0.77;0.57;;;8.70;99.90;;;;;;5025194;28;20192;-84
2022/02/18 04:10:50;;;;;;;0.13;0.13;;;8.60;99.90;;;;;;5025044;28;20194;-85
2022/02/18 04:13:16;;;;;;;0.27;0.10;;;8.60;99.90;;;;;;5025629;28;20189;-86
2022/02/18 04:15:41;;;;;;;0.00;0.00;;;8.50;99.90;;;;;;5023957;28;20308;-85
2022/02/18 04:18:07;;;;;;;1.60;0.40;;;8.50;99.90;;;;;;5021629;28;20677;-85
2022/02/18 04:20:32;;;;;;;0.27;0.27;;;8.50;99.90;;;;;;5024741;28;20677;-85
2022/02/18 04:22:58;;;;;;;0.10;0.10;;;8.50;99.90;;;;;;5025520;28;20190;-85
2022/02/18 04:25:24;;;;;;;0.10;0.10;;;8.50;99.90;;;;;;5022823;28;20712;-85
2022/02/18 04:27:58;;;;;;;0.00;0.00;;;8.50;99.90;;;;;;5022986;28;20277;-85
2022/02/18 04:30:23;;;;;;;0.27;0.27;;;8.60;99.90;;;;;;5025563;28;20187;-83
2022/02/18 04:32:50;;;;;;;0.20;0.20;;;8.60;99.90;;;;;;5024820;28;20182;-85
2022/02/18 04:35:16;;;;;;;0.20;0.20;;;8.60;99.90;;;;;;5024347;28;20682;-85
2022/02/18 04:37:42;;;;;;;0.77;0.77;;;8.50;99.90;;;;;;5023706;28;20750;-84
2022/02/18 04:40:09;;;;;;;0.17;0.17;;;8.50;99.90;;;;;;5021163;28;20195;-84
2022/02/18 04:42:34;;;;;;;0.87;0.43;;;8.50;99.90;;;;;;5020990;28;20210;-86
2022/02/18 04:45:00;;;;;;;0.50;0.47;;;8.50;99.90;;;;;;5025266;28;20182;-85
2022/02/18 04:47:25;;;;;;;0.30;0.30;;;8.50;99.90;;;;;;5024585;28;20206;-86
2022/02/18 04:49:51;;;;;;;3.03;0.20;;;8.40;99.90;;;;;;5019806;28;20180;-84
2022/02/18 04:52:16;;;;;;;0.23;0.23;;;8.40;99.90;;;;;;5022505;28;20188;-85
2022/02/18 04:54:42;;;;;;;1.80;1.70;;;8.30;99.90;;;;;;5026684;28;20193;-84
2022/02/18 04:57:08;;;;;;;0.40;0.40;;;8.30;99.90;;;;;;5019135;28;20312;-85
2022/02/18 04:59:33;;;;;;;0.10;0.10;;;8.40;99.90;;;;;;5023461;28;20291;-84
2022/02/18 05:01:59;;;;;;;3.57;0.60;;;8.30;99.90;;;;;;5026298;28;21182;-85
2022/02/18 05:04:25;;;;;;;0.30;0.30;;;8.40;99.90;;;;;;5022995;28;20222;-85
2022/02/18 05:06:50;;;;;;;0.03;0.03;;;8.40;99.90;;;;;;5020733;28;20308;-85
2022/02/18 05:09:16;;;;;;;0.13;0.13;;;8.50;99.90;;;;;;5022552;28;20201;-85
2022/02/18 05:11:42;;;;;;;0.13;0.13;;;8.60;99.90;;;;;;5023875;28;20189;-84
2022/02/18 05:14:07;;;;;;;0.10;0.10;;;8.60;99.90;;;;;;5025008;28;20289;-84
2022/02/18 05:16:33;;;;;;;0.20;0.17;;;8.60;99.90;;;;;;5023528;28;20727;-85
2022/02/18 05:18:58;;;;;;;0.50;0.37;;;8.70;99.90;;;;;;5024968;28;20734;-85
2022/02/18 05:21:24;;;;;;;0.10;0.10;;;8.60;99.90;;;;;;5019741;28;20189;-84
2022/02/18 05:23:50;;;;;;;0.57;0.57;;;8.50;99.90;;;;;;5024306;28;20189;-84
2022/02/18 05:26:16;;;;;;;0.87;0.43;;;8.50;99.90;;;;;;5022450;28;20581;-85
2022/02/18 05:28:41;;;;;;;0.30;0.17;;;8.30;99.90;;;;;;5024601;28;20232;-85
2022/02/18 05:31:07;;;;;;;2.07;0.67;;;8.40;99.90;;;;;;5024916;28;21042;-85
2022/02/18 05:33:32;;;;;;;0.27;0.27;;;8.40;99.90;;;;;;5019999;28;20196;-85
2022/02/18 05:35:58;;;;;;;0.10;0.10;;;8.50;99.90;;;;;;5020190;28;20209;-84
2022/02/18 05:38:25;;;;;;;0.23;0.23;;;8.60;99.90;;;;;;5026149;28;20743;-85
2022/02/18 05:40:55;;;;;;;0.50;0.50;;;8.60;99.90;;;;;;5023997;28;20217;-85
2022/02/18 05:43:21;;;;;;;1.03;0.40;;;8.60;99.90;;;;;;5021304;28;20190;-86
2022/02/18 05:45:47;;;;;;;0.30;0.20;;;8.70;99.90;;;;;;5028807;28;20294;-85
2022/02/18 05:48:12;;;;;;;0.10;0.10;;;8.70;99.90;;;;;;5028714;28;20199;-84
2022/02/18 05:50:38;;;;;;;0.10;0.10;;;8.70;99.90;;;;;;5028175;28;20383;-83
2022/02/18 05:53:03;;;;;;;6.27;0.93;;;8.70;99.90;;;;;;5027396;28;20186;-84
2022/02/18 05:55:28;;;;;;;2.70;0.83;;;8.80;99.90;;;;;;5029113;28;20196;-84
2022/02/18 05:57:55;;;;;;;0.20;0.20;;;8.90;99.90;;;;;;5027554;28;20616;-84
2022/02/18 06:00:20;;;;;;;1.50;0.40;;;8.90;99.90;;;;;;5024513;28;20197;-84
2022/02/18 06:02:46;;;;;;;0.97;0.77;;;9.00;99.90;;;;;;5027432;28;20193;-85
2022/02/18 06:05:12;;;;;;;0.30;0.30;;;9.00;99.90;;;;;;5027699;28;20216;-85
2022/02/18 06:07:38;;;;;;;0.20;0.20;;;9.10;99.90;;;;;;5027892;28;20206;-85
2022/02/18 06:10:04;;;;;;;0.20;0.20;;;9.10;99.90;;;;;;5025694;28;20731;-84
2022/02/18 06:12:29;;;;;;;5.17;0.77;;;9.10;99.90;;;;;;5031190;28;20245;-81
2022/02/18 06:14:55;;;;;;;1.60;0.43;;;9.00;99.90;;;;;;5030611;28;20316;-81
2022/02/18 06:17:21;;;;;;;3.20;1.47;;;9.00;99.90;;;;;;5031790;28;20325;-81
2022/02/18 06:19:47;;;;;;;0.20;0.20;;;9.00;99.90;;;;;;5032195;28;20189;-81
2022/02/18 06:22:12;;;;;;;0.00;0.00;;;9.00;99.90;;;;;;5027689;28;20208;-81
2022/02/18 06:24:38;;;;;;;0.50;0.40;;;8.90;99.90;;;;;;5030858;28;20198;-81
2022/02/18 06:27:05;;;;;;;1.60;0.93;;;8.90;99.90;;;;;;5029790;28;20219;-81
2022/02/18 06:29:30;;;;;;;1.70;0.37;;;8.80;99.90;;;;;;5027106;28;20186;-80
2022/02/18 06:31:57;;;;;;;0.27;0.27;;;8.70;99.90;;;;;;5023293;28;20258;-81
2022/02/18 06:34:23;;;;;;;0.57;0.57;;;8.90;99.90;;;;;;5030451;28;20180;-80
2022/02/18 06:36:51;;;;;;;2.53;0.83;;;8.90;99.90;;;;;;5025149;28;20257;-81
2022/02/18 06:39:18;;;;;;;0.10;0.10;;;8.80;99.90;;;;;;5028862;28;20182;-81
2022/02/18 06:41:44;;;;;;;0.40;0.40;;;8.90;99.90;;;;;;5025579;28;20182;-81
2022/02/18 06:44:10;;;;;;;0.50;0.40;;;8.80;99.90;;;;;;5026697;28;20194;-81
2022/02/18 06:46:35;;;;;;;0.23;0.23;;;8.90;99.90;;;;;;5027121;28;20708;-81
2022/02/18 06:49:01;;;;;;;0.50;0.30;;;8.90;99.90;;;;;;5021745;28;20185;-81
2022/02/18 06:51:26;;;;;;;1.33;0.67;;;9.00;99.90;;;;;;5025819;28;20232;-81
2022/02/18 06:53:52;;;;;;;0.77;0.77;;;9.00;99.90;;;;;;5028219;28;20193;-82
2022/02/18 06:56:17;;;;;;;0.40;0.40;;;9.10;99.90;;;;;;5026638;28;20220;-82
2022/02/18 06:58:43;;;;;;;0.50;0.50;;;9.10;99.90;;;;;;5025261;28;20197;-84
2022/02/18 07:01:08;;;;;;;0.50;0.50;;;9.10;99.90;;;;;;5028356;28;20205;-84
2022/02/18 07:03:34;;;;;;;0.23;0.23;;;9.10;99.90;;;;;;5022307;28;20199;-84
2022/02/18 07:06:03;;;;;;;0.00;0.00;;;9.20;99.90;;;;;;5029141;28;20216;-83
2022/02/18 07:08:29;;;;;;;0.63;0.63;;;9.20;99.90;;;;;;5026033;28;20203;-83
2022/02/18 07:10:55;;;;;;;0.30;0.30;;;9.30;99.90;;;;;;5025977;28;20196;-84
2022/02/18 07:13:20;;;;;;;0.23;0.23;;;9.30;99.90;;;;;;5022586;28;20202;-83
2022/02/18 07:15:46;;;;;;;5.00;0.33;;;9.30;99.90;;;;;;5026828;28;20224;-84
2022/02/18 07:18:11;;;;;;;0.60;0.60;;;9.30;99.90;;;;;;5023297;28;20201;-83
2022/02/18 07:20:37;;;;;;;0.20;0.20;;;9.30;99.90;;;;;;5028288;28;20564;-86
2022/02/18 07:23:06;;;;;;;1.13;0.40;;;9.30;99.90;;;;;;5024916;28;20210;-85
2022/02/18 07:25:32;;;;;;;0.10;0.10;;;9.40;99.90;;;;;;5026148;28;20205;-84
2022/02/18 07:27:58;;;;;;;0.47;0.43;;;9.40;99.90;;;;;;5026510;28;20197;-85
2022/02/18 07:30:23;;;;;;;0.57;0.50;;;9.40;99.90;;;;;;5020374;28;20227;-82
2022/02/18 07:32:49;;;;;;;0.43;0.40;;;9.40;99.90;;;;;;5026579;28;20211;-82
2022/02/18 07:35:15;;;;;;;0.20;0.20;;;9.40;99.90;;;;;;5017005;28;20190;-82
2022/02/18 07:37:42;;;;;;;3.03;0.40;;;9.50;99.90;;;;;;5027824;28;20206;-83
2022/02/18 07:40:09;;;;;;;0.17;0.17;;;9.50;99.90;;;;;;5023601;28;20191;-82
2022/02/18 07:42:34;;;;;;;0.53;0.50;;;9.50;99.90;;;;;;5022361;28;20180;-82
2022/02/18 07:45:00;;;;;;;0.00;0.00;;;9.50;99.90;;;;;;5019794;28;20185;-82
2022/02/18 07:47:25;;;;;;;0.10;0.10;;;9.50;99.90;;;;;;5026594;28;20296;-82
2022/02/18 07:49:51;;;;;;;0.37;0.27;;;9.60;99.90;;;;;;5027923;28;20193;-82
2022/02/18 07:52:17;;;;;;;0.17;0.17;;;9.60;99.90;;;;;;5022345;28;20239;-82
2022/02/18 07:54:43;;;;;;;1.70;0.77;;;9.60;99.90;;;;;;5028006;28;20192;-82
2022/02/18 07:57:09;;;;;;;0.10;0.10;;;9.70;99.90;;;;;;5020075;28;20239;-82
2022/02/18 07:59:34;;;;;;;0.50;0.50;;;9.70;99.90;;;;;;5022046;28;20221;-82
2022/02/18 08:02:00;;;;;;;0.00;0.00;;;9.70;99.90;;;;;;5024939;28;20191;-82
2022/02/18 08:04:25;;;;;;;0.10;0.10;;;9.70;99.90;;;;;;5020981;28;20291;-82
2022/02/18 08:06:51;;;;;;;0.43;0.37;;;9.50;99.90;;;;;;5017989;28;20613;-83
2022/02/18 08:09:16;;;;;;;0.20;0.20;;;9.60;99.90;;;;;;5018534;28;20188;-83
2022/02/18 08:11:42;;;;;;;0.20;0.20;;;9.60;99.90;;;;;;5027897;28;20819;-82
2022/02/18 08:14:07;;;;;;;0.77;0.77;;;9.60;99.90;;;;;;5024289;28;20555;-83
2022/02/18 08:16:33;;;;;;;2.17;0.77;;;9.60;99.90;;;;;;5024254;28;20232;-82
2022/02/18 08:18:59;;;;;;;0.37;0.37;;;9.50;99.90;;;;;;5026249;28;20259;-82
2022/02/18 08:21:26;;;;;;;0.30;0.30;;;9.50;99.90;;;;;;5026302;28;20203;-85
2022/02/18 08:23:52;;;;;;;0.40;0.20;;;9.40;99.90;;;;;;5026308;28;20731;-84
2022/02/18 08:26:22;;;;;;;0.10;0.10;;;9.20;99.90;;;;;;5024832;28;20672;-85
2022/02/18 08:28:48;;;;;;;1.50;0.43;;;9.20;99.90;;;;;;5024090;28;20196;-82
2022/02/18 08:31:14;;;;;;;3.90;0.27;;;9.30;99.90;;;;;;5027928;28;20679;-82
2022/02/18 08:33:40;;;;;;;0.20;0.20;;;9.50;99.90;;;;;;5018481;28;20186;-82
2022/02/18 08:36:10;;;;;;;1.20;0.77;;;9.50;99.90;;;;;;5026206;28;20209;-82
2022/02/18 08:38:36;;;;;;;0.50;0.50;;;9.30;99.90;;;;;;5023869;28;20194;-82
2022/02/18 08:41:02;;;;;;;0.10;0.10;;;9.50;99.90;;;;;;5023578;28;20557;-83
2022/02/18 08:43:27;;;;;;;0.43;0.30;;;9.60;99.90;;;;;;5024777;28;20186;-81
2022/02/18 08:45:53;;;;;;;0.20;0.20;;;9.60;99.90;;;;;;5024687;28;20220;-82
2022/02/18 08:48:18;;;;;;;1.40;0.87;;;9.70;99.90;;;;;;5024075;28;20230;-81
2022/02/18 08:50:44;;;;;;;3.93;0.20;;;9.90;99.90;;;;;;5023498;28;20666;-81
2022/02/18 08:53:09;;;;;;;0.10;0.10;;;9.90;99.90;;;;;;5026178;28;20196;-81
2022/02/18 08:55:35;;;;;;;0.10;0.10;;;10.00;99.90;;;;;;5025112;28;20194;-82
2022/02/18 08:58:01;;;;;;;1.07;0.40;;;9.90;99.90;;;;;;5025937;28;20188;-82
2022/02/18 09:00:27;;;;;;;0.60;0.27;;;9.80;99.90;;;;;;5024418;28;20249;-83
2022/02/18 09:02:53;;;;;;;0.10;0.10;;;9.70;99.90;;;;;;5024611;28;20197;-82
2022/02/18 09:05:19;;;;;;;0.27;0.27;;;9.60;99.90;;;;;;5024793;28;20276;-83
2022/02/18 09:07:45;;;;;;;0.27;0.27;;;9.60;99.90;;;;;;5020877;28;20205;-82
2022/02/18 09:10:14;;;;;;;0.43;0.37;;;9.70;99.90;;;;;;5019896;28;20238;-82
2022/02/18 09:12:40;;;;;;;0.20;0.20;;;9.90;99.90;;;;;;5018416;28;20179;-82
2022/02/18 09:15:11;;;;;;;1.30;0.87;;;9.90;99.90;;;;;;5023822;28;20651;-83
2022/02/18 09:17:37;;;;;;;0.40;0.40;;;10.00;99.90;;;;;;5024851;28;20231;-83
2022/02/18 09:20:05;;;;;;;0.47;0.47;;;9.80;99.90;;;;;;5040877;28;20225;-82
2022/02/18 09:22:31;;;;;;;0.37;0.37;;;9.60;99.90;;;;;;5022302;28;20212;-82
2022/02/18 09:24:57;;;;;;;0.20;0.20;;;9.60;99.90;;;;;;5025832;28;21134;-82
2022/02/18 09:27:23;;;;;;;0.57;0.57;;;9.70;99.90;;;;;;5022123;28;20220;-83
2022/02/18 09:29:49;;;;;;;2.23;0.77;;;9.50;99.90;;;;;;5024200;28;20246;-83
2022/02/18 09:32:16;;;;;;;0.57;0.40;;;9.50;99.90;;;;;;5025724;28;20284;-82
2022/02/18 09:34:41;;;;;;;0.20;0.20;;;9.50;99.90;;;;;;5024510;28;20189;-84
2022/02/18 09:37:07;;;;;;;0.30;0.30;;;9.50;99.90;;;;;;5018161;28;20585;-83
2022/02/18 09:39:34;;;;;;;0.83;0.40;;;9.40;99.90;;;;;;5020956;28;20209;-82
2022/02/18 09:41:59;;;;;;;3.10;0.97;;;9.50;99.90;;;;;;5022957;28;20183;-82
2022/02/18 09:44:28;;;;;;;0.10;0.10;;;9.30;99.90;;;;;;5023190;28;20238;-82
2022/02/18 09:46:55;;;;;;;1.17;1.07;;;9.40;99.90;;;;;;5016867;28;20777;-83
2022/02/18 09:49:21;;;;;;;2.43;0.30;;;9.50;99.90;;;;;;5024423;28;20200;-83
2022/02/18 09:51:46;;;;;;;0.10;0.10;;;9.60;99.90;;;;;;5022704;28;20292;-83
2022/02/18 09:54:12;;;;;;;1.47;0.40;;;9.60;99.90;;;;;;5017470;28;20486;-83
2022/02/18 09:56:42;;;;;;;0.30;0.30;;;9.60;99.90;;;;;;5023905;28;20652;-83
2022/02/18 09:59:10;;;;;;;0.10;0.10;;;9.70;99.90;;;;;;5018444;28;20252;-83
2022/02/18 10:01:36;;;;;;;2.80;0.30;;;9.80;99.90;;;;;;5023453;28;20190;-83
2022/02/18 10:04:02;;;;;;;0.30;0.30;;;9.80;99.90;;;;;;5023120;28;20201;-84
2022/02/18 10:06:29;;;;;;;0.43;0.20;;;9.80;99.90;;;;;;5019177;28;20219;-82
2022/02/18 10:08:55;;;;;;;0.33;0.33;;;9.70;99.90;;;;;;5018940;28;20531;-84
2022/02/18 10:11:21;;;;;;;0.40;0.23;;;9.50;99.90;;;;;;5024025;28;20618;-83
2022/02/18 10:13:47;;;;;;;5.83;0.20;;;9.60;99.90;;;;;;5023343;28;20230;-82
2022/02/18 10:16:16;;;;;;;0.40;0.40;;;9.70;99.90;;;;;;5021407;28;20217;-82
2022/02/18 10:18:47;;;;;;;0.10;0.10;;;9.70;99.90;;;;;;5022248;28;20601;-83
2022/02/18 10:21:14;;;;;;;0.30;0.30;;;9.70;99.90;;;;;;5023882;28;20194;-82
2022/02/18 10:23:40;;;;;;;0.70;0.33;;;9.60;99.90;;;;;;5021831;28;20198;-83
2022/02/18 10:26:05;;;;;;;1.17;0.40;;;9.70;99.90;;;;;;5020602;28;20566;-82
2022/02/18 10:28:31;;;;;;;0.60;0.60;;;9.40;99.90;;;;;;5023971;28;20193;-82
2022/02/18 10:31:05;;;;;;;0.73;0.70;;;9.40;99.90;;;;;;5026050;28;20206;-82
2022/02/18 10:33:35;;;;;;;0.20;0.20;;;9.40;99.90;;;;;;5026991;28;20184;-82
2022/02/18 10:36:02;;;;;;;0.10;0.10;;;9.40;99.90;;;;;;5028522;28;20204;-83
2022/02/18 10:38:33;;;;;;;0.20;0.20;;;9.40;99.90;;;;;;5023819;28;20221;-83
2022/02/18 10:40:59;;;;;;;0.20;0.20;;;9.70;99.90;;;;;;5024506;28;20262;-83
2022/02/18 10:43:26;;;;;;;4.73;0.43;;;9.90;99.90;;;;;;5027693;28;20279;-82
2022/02/18 10:46:04;;;;;;;0.27;0.20;;;10.00;99.90;;;;;;5025262;28;20703;-81
2022/02/18 10:48:44;;;;;;;0.37;0.37;;;9.80;99.90;;;;;;5027246;28;20182;-82
2022/02/18 10:51:14;;;;;;;0.10;0.10;;;9.90;99.90;;;;;;5027642;28;20184;-82
2022/02/18 10:53:44;;;;;;;1.40;0.50;;;10.10;99.90;;;;;;5023442;28;20220;-81
2022/02/18 10:56:12;;;;;;;0.23;0.23;;;10.40;99.90;;;;;;5025390;28;20244;-82
2022/02/18 10:58:51;;;;;;;0.10;0.10;;;10.70;99.90;;;;;;5025566;28;20189;-82
2022/02/18 11:01:25;;;;;;;0.50;0.20;;;11.00;99.90;;;;;;5024003;28;20200;-81
2022/02/18 11:03:57;;;;;;;0.47;0.37;;;11.20;99.90;;;;;;5029108;28;20194;-81
2022/02/18 11:06:37;;;;;;;1.50;1.37;;;11.10;99.90;;;;;;5031064;28;20226;-82
2022/02/18 11:09:04;;;;;;;0.20;0.20;;;11.00;99.90;;;;;;5031183;28;20239;-80
2022/02/18 11:11:45;;;;;;;0.50;0.33;;;11.10;99.90;;;;;;5030662;28;20204;-80
2022/02/18 11:14:13;;;;;;;0.43;0.40;;;11.30;99.90;;;;;;5029020;28;20184;-80
2022/02/18 11:16:40;;;;;;;0.20;0.20;;;11.10;99.90;;;;;;5031712;28;20217;-80
2022/02/18 11:19:06;;;;;;;0.50;0.40;;;11.10;99.90;;;;;;5026098;28;20190;-80
2022/02/18 11:21:32;;;;;;;0.10;0.10;;;11.10;99.90;;;;;;5032434;28;20190;-80
2022/02/18 11:24:00;;;;;;;0.83;0.83;;;11.00;99.90;;;;;;5029661;28;20192;-80
2022/02/18 11:26:28;;;;;;;1.73;0.40;;;10.90;99.90;;;;;;5030042;28;20228;-81
2022/02/18 11:28:55;;;;;;;0.20;0.20;;;11.00;99.90;;;;;;5031754;28;20189;-81
2022/02/18 11:31:28;;;;;;;0.50;0.47;;;11.10;99.90;;;;;;5030219;28;20265;-81
2022/02/18 11:34:12;;;;;;;0.10;0.10;;;11.40;99.90;;;;;;5046596;28;20193;-80
2022/02/18 11:37:07;;;;;;;0.83;0.20;;;11.70;99.90;;;;;;5027670;28;20252;-81
2022/02/18 11:39:58;;;;;;;0.10;0.10;;;12.00;99.90;;;;;;5029220;28;20193;-80
2022/02/18 11:42:41;;;;;;;0.30;0.30;;;12.30;99.90;;;;;;5026646;28;20226;-81
2022/02/18 11:45:16;;;;;;;0.10;0.10;;;12.60;99.90;;;;;;5029362;28;20240;-81
2022/02/18 11:47:42;;;;;;;0.10;0.10;;;12.80;99.90;;;;;;5028117;28;20201;-81
2022/02/18 11:50:14;;;;;;;0.10;0.10;;;12.90;99.90;;;;;;5029600;28;20551;-80
2022/02/18 11:52:44;;;;;;;0.10;0.10;;;13.10;99.90;;;;;;5028199;28;20187;-80
2022/02/18 11:55:31;;;;;;;0.10;0.10;;;13.20;99.90;;;;;;5029277;28;20285;-82
2022/02/18 11:58:06;;;;;;;0.10;0.10;;;13.20;99.90;;;;;;5028898;28;20197;-81
2022/02/18 12:00:38;;;;;;;0.93;0.20;;;13.20;99.90;;;;;;5027675;28;20182;-81
2022/02/18 12:03:31;;;;;;;0.10;0.10;;;13.20;99.90;;;;;;5028558;28;20190;-81
2022/02/18 12:06:16;;;;;;;0.23;0.23;;;13.20;99.90;;;;;;5026960;28;20257;-82
2022/02/18 12:08:51;;;;;;;0.10;0.10;;;13.30;99.90;;;;;;5028383;28;20182;-82
2022/02/18 12:11:19;;;;;;;0.20;0.20;;;13.60;99.90;;;;;;5028857;28;20174;-81
2022/02/18 12:13:51;;;;;;;0.10;0.10;;;13.80;99.90;;;;;;5026645;28;20182;-81
2022/02/18 12:16:17;;;;;;;0.13;0.13;;;14.00;99.90;;;;;;5020463;28;20201;-81
2022/02/18 12:19:01;;;;;;;0.10;0.10;;;14.00;99.90;;;;;;5026137;28;20209;-81
2022/02/18 12:21:26;;;;;;;0.20;0.20;;;13.90;99.90;;;;;;5022440;28;20178;-81
2022/02/18 12:23:52;;;;;;;0.10;0.10;;;13.80;99.90;;;;;;5023308;28;20178;-83
2022/02/18 12:26:18;;;;;;;0.10;0.10;;;13.70;99.90;;;;;;5026576;28;20264;-82
2022/02/18 12:28:45;;;;;;;0.00;0.00;;;13.70;99.90;;;;;;5026471;28;21252;-82
2022/02/18 12:31:10;;;;;;;0.10;0.10;;;13.80;99.90;;;;;;5026382;28;20232;-81
2022/02/18 12:33:37;;;;;;;0.10;0.10;;;13.90;99.90;;;;;;5027298;28;20679;-81
2022/02/18 12:36:08;;;;;;;0.10;0.10;;;14.00;99.90;;;;;;5024835;28;20612;-81
2022/02/18 12:38:34;;;;;;;0.20;0.20;;;14.00;99.90;;;;;;5023291;28;20198;-81
2022/02/18 12:41:03;;;;;;;0.20;0.20;;;14.00;99.90;;;;;;5024929;28;20286;-81
2022/02/18 12:43:30;;;;;;;0.10;0.10;;;14.00;99.90;;;;;;5021843;28;20304;-80
2022/02/18 12:46:02;;;;;;;0.20;0.20;;;14.00;99.90;;;;;;5020820;28;20214;-81
2022/02/18 12:48:32;;;;;;;0.20;0.20;;;14.00;99.90;;;;;;5022406;28;20193;-81
2022/02/18 12:51:00;;;;;;;0.13;0.13;;;14.10;99.90;;;;;;5026044;28;20200;-80
2022/02/18 12:53:26;;;;;;;0.13;0.13;;;14.10;99.90;;;;;;5024486;28;20174;-85